Time;durP1;ratioP1;P1;durP2;ratioP2;P2;SDS_P1;SDS_P2;PMS_P1;PMS_P2;Temp;Humidity;BMP_temperature;BMP_pressure;BME280_temperature;BME280_humidity;BME280_pressure;Samples;Min_cycle;Max_cycle;Signal;HPM_P1;HPM_P2
2022/10/20 00:01:24;;;;;;;;;11.25;9.75;;;;;22.47;54.94;100714.31;5082290;27;46070;-52
2022/10/20 00:03:50;;;;;;;;;10.75;8.50;;;;;22.46;54.63;100714.41;5078717;27;45328;-49
2022/10/20 00:06:22;;;;;;;;;10.00;9.25;;;;;22.46;54.74;100706.50;5078617;27;45355;-54
2022/10/20 00:08:47;;;;;;;;;15.50;11.25;;;;;22.45;54.67;100710.91;5078917;27;45313;-54
2022/10/20 00:11:15;;;;;;;;;9.50;9.50;;;;;22.45;54.99;100716.19;5078322;27;45414;-53
2022/10/20 00:13:43;;;;;;;;;10.00;8.50;;;;;22.44;54.83;100717.13;5078543;27;45397;-53
2022/10/20 00:16:09;;;;;;;;;11.00;9.50;;;;;22.45;54.54;100708.28;5078417;27;45217;-52
2022/10/20 00:18:35;;;;;;;;;10.50;9.50;;;;;22.44;54.67;100703.94;5078887;27;45505;-53
2022/10/20 00:21:05;;;;;;;;;13.00;10.75;;;;;22.45;54.65;100703.00;5077869;27;45383;-52
2022/10/20 00:23:31;;;;;;;;;8.25;7.25;;;;;22.42;54.60;100702.34;5078612;28;45776;-52
2022/10/20 00:26:05;;;;;;;;;10.00;9.25;;;;;22.44;54.67;100701.28;5079053;27;45313;-53
2022/10/20 00:28:31;;;;;;;;;15.00;10.25;;;;;22.43;54.93;100697.00;5079669;27;45192;-54
2022/10/20 00:30:56;;;;;;;;;11.00;9.50;;;;;22.40;54.85;100691.88;5088908;28;45653;-55
2022/10/20 00:33:23;;;;;;;;;11.75;11.00;;;;;22.43;54.69;100689.06;5079115;27;45266;-52
2022/10/20 00:35:48;;;;;;;;;10.00;9.50;;;;;22.40;54.98;100686.59;5103858;27;45330;-54
2022/10/20 00:38:14;;;;;;;;;11.50;10.25;;;;;22.39;54.86;100683.09;5105914;27;45197;-53
2022/10/20 00:40:39;;;;;;;;;11.50;11.50;;;;;22.38;55.01;100691.94;5088224;27;53073;-53
2022/10/20 00:43:09;;;;;;;;;11.75;8.50;;;;;22.42;54.64;100697.94;5079389;28;45414;-55
2022/10/20 00:45:35;;;;;;;;;9.00;9.00;;;;;22.43;54.93;100688.19;5060589;28;45364;-52
2022/10/20 00:48:24;;;;;;;;;10.00;9.00;;;;;22.43;54.90;100683.78;5078355;27;45374;-54
2022/10/20 00:50:52;;;;;;;;;9.25;8.50;;;;;22.43;54.66;100677.63;5093649;27;46615;-52
2022/10/20 00:53:20;;;;;;;;;10.25;10.25;;;;;22.41;54.60;100675.13;5102637;27;45152;-55
2022/10/20 00:55:47;;;;;;;;;13.25;11.25;;;;;22.41;54.66;100672.47;5082919;27;45235;-54
2022/10/20 00:58:13;;;;;;;;;9.25;9.25;;;;;22.40;54.49;100678.66;5078683;27;45235;-54
2022/10/20 01:00:40;;;;;;;;;10.00;8.75;;;;;22.41;54.65;100679.53;5077993;27;45284;-55
2022/10/20 01:03:12;;;;;;;;;11.25;10.25;;;;;22.40;54.56;100683.94;5077959;27;45939;-54
2022/10/20 01:05:37;;;;;;;;;11.50;11.50;;;;;22.41;54.59;100674.25;5079386;27;45323;-53
2022/10/20 01:08:03;;;;;;;;;9.25;9.25;;;;;22.40;54.78;100662.81;5095330;27;45594;-54
2022/10/20 01:10:38;;;;;;;;;9.00;9.00;;;;;22.36;54.59;100659.53;5079227;27;46906;-54
2022/10/20 01:13:18;;;;;;;;;12.00;9.25;;;;;22.37;54.77;100669.16;5089078;27;45520;-54
2022/10/20 01:15:48;;;;;;;;;9.00;8.75;;;;;22.39;54.55;100667.25;5104026;27;44720;-53
2022/10/20 01:18:19;;;;;;;;;10.75;10.00;;;;;22.40;54.58;100683.94;5100397;28;44642;-54
2022/10/20 01:20:54;;;;;;;;;13.00;13.00;;;;;22.40;54.63;100678.66;5092293;28;46826;-65
2022/10/20 01:23:41;;;;;;;;;11.75;11.00;;;;;22.40;54.74;100681.31;5078709;27;45509;-56
2022/10/20 01:26:34;;;;;;;;;11.50;10.00;;;;;22.39;54.78;100672.53;5077921;28;45276;-53
2022/10/20 01:29:15;;;;;;;;;9.25;9.25;;;;;22.39;54.81;100680.44;5077462;27;45375;-55
2022/10/20 01:31:49;;;;;;;;;10.50;10.50;;;;;22.36;54.62;100693.00;5077210;27;46302;-53
2022/10/20 01:34:17;;;;;;;;;10.00;9.50;;;;;22.38;54.73;100696.41;5077291;27;45739;-55
2022/10/20 01:37:06;;;;;;;;;8.25;7.25;;;;;22.36;54.63;100688.59;5076831;27;45427;-54
2022/10/20 01:39:43;;;;;;;;;9.00;9.00;;;;;22.35;54.79;100678.09;5081303;28;45360;-54
2022/10/20 01:42:16;;;;;;;;;10.25;9.00;;;;;22.38;54.70;100693.75;5080872;27;46105;-53
2022/10/20 01:44:43;;;;;;;;;11.25;11.00;;;;;22.36;54.46;100700.94;5077588;28;45862;-53
2022/10/20 01:47:12;;;;;;;;;10.00;10.00;;;;;22.38;54.77;100725.44;5095537;27;45420;-52
2022/10/20 01:49:42;;;;;;;;;10.00;10.00;;;;;22.37;54.87;100737.81;5104401;27;44828;-55
2022/10/20 01:52:10;;;;;;;;;13.75;10.00;;;;;22.38;54.58;100730.72;5083714;27;45388;-51
2022/10/20 01:54:35;;;;;;;;;10.50;10.50;;;;;22.34;54.83;100723.94;5079755;27;45495;-53
2022/10/20 01:57:25;;;;;;;;;10.33;10.33;;;;;22.38;54.82;100741.28;5088632;28;56732;-55
2022/10/20 02:00:02;;;;;;;;;11.00;10.75;;;;;22.36;54.65;100729.97;5100258;28;45215;-53
2022/10/20 02:02:33;;;;;;;;;14.00;10.00;;;;;22.36;54.66;100722.06;5092629;27;47731;-53
2022/10/20 02:05:15;;;;;;;;;11.75;10.75;;;;;22.36;54.42;100700.94;5076983;28;45795;-53
2022/10/20 02:07:41;;;;;;;;;8.50;8.50;;;;;22.36;54.56;100688.59;5077685;27;45369;-53
2022/10/20 02:10:09;;;;;;;;;11.25;9.00;;;;;22.37;54.78;100684.13;5080173;27;45381;-52
2022/10/20 02:12:39;;;;;;;;;12.00;9.50;;;;;22.36;54.65;100667.47;5079392;27;47187;-55
2022/10/20 02:15:07;;;;;;;;;5.75;4.25;;;;;22.35;54.41;100671.06;5077202;27;45178;-55
2022/10/20 02:17:36;;;;;;;;;14.00;11.00;;;;;22.35;54.89;100660.50;5077058;27;45333;-55
2022/10/20 02:20:04;;;;;;;;;10.00;9.00;;;;;22.36;54.84;100645.47;5077121;27;45436;-55
2022/10/20 02:22:31;;;;;;;;;10.00;10.00;;;;;22.35;54.57;100606.81;5095042;27;46328;-53
2022/10/20 02:24:58;;;;;;;;;9.75;9.00;;;;;22.31;54.78;100613.28;5100022;27;45800;-53
2022/10/20 02:27:31;;;;;;;;;11.25;10.00;;;;;22.35;54.74;100615.59;5077164;27;45320;-51
2022/10/20 02:30:01;;;;;;;;;10.75;9.50;;;;;22.32;54.77;100625.53;5076947;27;45471;-52
2022/10/20 02:32:30;;;;;;;;;11.00;8.50;;;;;22.34;54.80;100600.72;5076513;27;46173;-52
2022/10/20 02:34:55;;;;;;;;;12.25;11.25;;;;;22.35;54.50;100609.47;5076757;27;45450;-54
2022/10/20 02:37:20;;;;;;;;;8.25;8.00;;;;;22.35;54.71;100572.50;5076105;27;45303;-53
2022/10/20 02:39:46;;;;;;;;;8.50;8.50;;;;;22.35;54.77;100544.31;5075150;28;45445;-53
2022/10/20 02:42:11;;;;;;;;;8.50;8.50;;;;;22.35;54.77;100540.81;5076036;27;46030;-52
2022/10/20 02:44:37;;;;;;;;;10.00;10.00;;;;;22.35;54.84;100543.44;5076725;28;45333;-51
2022/10/20 02:47:03;;;;;;;;;12.50;10.25;;;;;22.33;54.68;100540.06;5080654;27;45239;-52
2022/10/20 02:49:28;;;;;;;;;10.25;8.50;;;;;22.34;54.53;100553.19;5077521;27;45615;-51
2022/10/20 02:51:53;;;;;;;;;11.50;11.00;;;;;22.34;54.62;100557.59;5076413;28;45459;-54
2022/10/20 02:54:19;;;;;;;;;5.00;4.00;;;;;22.35;54.61;100554.00;5075798;27;45441;-53
2022/10/20 02:56:44;;;;;;;;;9.75;8.75;;;;;22.34;54.49;100558.47;5076212;27;45377;-54
2022/10/20 02:59:15;;;;;;;;;8.75;8.75;;;;;22.35;54.57;100561.94;5076029;27;45349;-55
2022/10/20 03:01:41;;;;;;;;;9.50;9.50;;;;;22.35;54.52;100572.50;5075928;27;46217;-53
2022/10/20 03:04:06;;;;;;;;;10.00;8.00;;;;;22.32;54.54;100570.09;5075646;27;45389;-55
2022/10/20 03:06:31;;;;;;;;;7.00;6.75;;;;;22.35;54.79;100577.78;5076062;28;45450;-54
2022/10/20 03:08:56;;;;;;;;;9.75;9.00;;;;;22.34;54.44;100581.34;5076394;28;45249;-55
2022/10/20 03:11:23;;;;;;;;;8.25;8.25;;;;;22.34;54.78;100584.00;5091408;27;47571;-53
2022/10/20 03:13:48;;;;;;;;;10.00;10.00;;;;;22.34;54.64;100589.28;5078742;28;45436;-53
2022/10/20 03:16:13;;;;;;;;;9.75;9.75;;;;;22.34;54.96;100584.88;5083350;27;52764;-54
2022/10/20 03:18:39;;;;;;;;;10.50;9.00;;;;;22.34;54.59;100589.28;5087880;27;45530;-53
2022/10/20 03:21:04;;;;;;;;;9.67;9.67;;;;;22.32;54.80;100580.66;5101023;28;65075;-53
2022/10/20 03:23:29;;;;;;;;;8.75;8.25;;;;;22.32;54.67;100570.91;5086567;27;45404;-54
2022/10/20 03:26:06;;;;;;;;;8.50;7.25;;;;;22.34;54.98;100568.16;5075824;28;45294;-53
2022/10/20 03:28:31;;;;;;;;;8.50;7.50;;;;;22.34;54.84;100581.34;5104142;27;44710;-54
2022/10/20 03:30:57;;;;;;;;;7.75;7.75;;;;;22.32;54.53;100597.31;5104827;27;45008;-53
2022/10/20 03:33:22;;;;;;;;;7.75;7.75;;;;;22.34;54.72;100603.34;5080162;27;45301;-54
2022/10/20 03:35:48;;;;;;;;;11.00;9.00;;;;;22.33;54.67;100603.44;5076139;27;45417;-53
2022/10/20 03:38:13;;;;;;;;;10.00;9.50;;;;;22.33;54.61;100600.78;5075612;28;45297;-55
2022/10/20 03:40:38;;;;;;;;;9.50;8.25;;;;;22.33;54.92;100606.06;5075361;27;51052;-54
2022/10/20 03:43:04;;;;;;;;;8.25;8.25;;;;;22.33;54.87;100604.28;5075302;27;45424;-54
2022/10/20 03:45:29;;;;;;;;;10.25;10.25;;;;;22.34;54.69;100613.03;5075583;28;45157;-53
2022/10/20 03:47:54;;;;;;;;;8.00;6.50;;;;;22.33;54.61;100619.28;5075901;27;45156;-55
2022/10/20 03:50:20;;;;;;;;;9.75;8.75;;;;;22.34;54.82;100637.66;5075357;28;46247;-54
2022/10/20 03:52:49;;;;;;;;;9.00;9.00;;;;;22.32;54.84;100634.28;5090934;27;45360;-51
2022/10/20 03:55:16;;;;;;;;;8.50;8.00;;;;;22.33;54.68;100640.38;5094767;28;45351;-51
2022/10/20 03:57:41;;;;;;;;;10.00;9.00;;;;;22.32;54.85;100629.00;5076161;27;45229;-53
2022/10/20 04:00:07;;;;;;;;;8.25;6.25;;;;;22.29;54.63;100620.44;5076424;28;46195;-53
2022/10/20 04:02:36;;;;;;;;;9.50;7.00;;;;;22.33;54.90;100650.94;5087210;28;45477;-54
2022/10/20 04:05:02;;;;;;;;;7.25;7.25;;;;;22.30;54.82;100640.63;5099301;27;44736;-53
2022/10/20 04:07:27;;;;;;;;;7.75;7.00;;;;;22.31;54.94;100629.13;5084684;27;45279;-53
2022/10/20 04:09:53;;;;;;;;;8.50;7.75;;;;;22.29;54.93;100620.44;5082628;27;45487;-54
2022/10/20 04:12:18;;;;;;;;;7.25;6.00;;;;;22.27;55.03;100607.31;5079235;27;45673;-55
2022/10/20 04:14:44;;;;;;;;;10.00;8.00;;;;;22.27;55.01;100583.56;5079521;27;45632;-54
2022/10/20 04:17:09;;;;;;;;;7.75;7.25;;;;;22.29;55.09;100589.59;5098810;28;45473;-54
2022/10/20 04:19:34;;;;;;;;;12.75;11.50;;;;;22.29;55.33;100588.75;5094199;28;46346;-54
2022/10/20 04:22:00;;;;;;;;;29.50;26.75;;;;;22.23;55.46;100585.56;5106252;27;45103;-53
2022/10/20 04:24:25;;;;;;;;;32.25;28.25;;;;;22.27;55.48;100602.03;5088353;28;45408;-53
2022/10/20 04:26:50;;;;;;;;;31.00;30.00;;;;;22.24;55.26;100587.25;5081726;27;45339;-54
2022/10/20 04:29:15;;;;;;;;;32.67;29.67;;;;;22.26;55.57;100581.03;5097478;27;48689;-54
2022/10/20 04:31:42;;;;;;;;;43.33;37.00;;;;;22.22;55.37;100575.94;5079327;28;45405;-53
2022/10/20 04:34:08;;;;;;;;;37.00;33.75;;;;;22.23;55.65;100582.94;5078763;27;45312;-51
2022/10/20 04:36:33;;;;;;;;;34.25;30.75;;;;;22.22;55.67;100599.72;5077211;28;45434;-55
2022/10/20 04:38:58;;;;;;;;;35.75;30.50;;;;;22.23;55.78;100619.88;5078071;27;46018;-53
2022/10/20 04:41:24;;;;;;;;;33.75;30.25;;;;;22.24;55.72;100620.75;5078289;27;49431;-53
2022/10/20 04:43:51;;;;;;;;;21.00;21.00;;;;;22.21;56.00;100611.22;5078144;28;45220;-54
2022/10/20 04:46:17;;;;;;;;;26.50;26.50;;;;;22.25;55.84;100606.59;5078024;27;45471;-53
2022/10/20 04:48:43;;;;;;;;;30.25;27.00;;;;;22.23;56.01;100600.56;5077820;27;46766;-52
2022/10/20 04:51:11;;;;;;;;;26.25;23.00;;;;;22.20;56.03;100600.78;5077039;27;45532;-52
2022/10/20 04:53:37;;;;;;;;;25.00;25.00;;;;;22.21;56.01;100603.28;5078077;27;45373;-54
2022/10/20 04:56:04;;;;;;;;;31.25;30.25;;;;;22.18;56.32;100592.97;5078019;27;45579;-53
2022/10/20 04:58:30;;;;;;;;;26.25;25.25;;;;;22.23;55.91;100587.38;5078742;27;45262;-54
2022/10/20 05:01:03;;;;;;;;;24.25;23.25;;;;;22.20;55.95;100580.50;5083004;27;45407;-55
2022/10/20 05:03:29;;;;;;;;;28.25;25.00;;;;;22.22;56.31;100591.78;5078952;27;45172;-52
2022/10/20 05:06:06;;;;;;;;;24.00;22.50;;;;;22.21;56.23;100605.94;5078533;27;45582;-53
2022/10/20 05:08:31;;;;;;;;;24.25;22.50;;;;;22.21;56.36;100599.81;5077673;27;46309;-54
2022/10/20 05:10:59;;;;;;;;;19.67;19.67;;;;;22.20;56.06;100609.56;5076889;28;59156;-54
2022/10/20 05:13:24;;;;;;;;;23.50;22.50;;;;;22.21;56.11;100624.41;5077464;27;45402;-54
2022/10/20 05:15:53;;;;;;;;;22.00;19.67;;;;;22.22;56.35;100626.09;5077222;28;53332;-51
2022/10/20 05:18:18;;;;;;;;;23.00;20.50;;;;;22.21;56.80;100632.34;5076040;28;45889;-54
2022/10/20 05:20:44;;;;;;;;;22.50;19.50;;;;;22.22;57.07;100618.19;5077602;27;45273;-56
2022/10/20 05:23:09;;;;;;;;;24.25;20.75;;;;;22.21;57.12;100613.84;5076231;28;45213;-55
2022/10/20 05:25:38;;;;;;;;;20.50;17.75;;;;;22.23;57.65;100633.09;5077702;27;45164;-53
2022/10/20 05:28:04;;;;;;;;;17.75;16.00;;;;;22.23;57.91;100643.66;5077817;27;59414;-53
2022/10/20 05:30:30;;;;;;;;;23.75;21.50;;;;;22.21;58.15;100640.25;5079894;27;45267;-55
2022/10/20 05:32:55;;;;;;;;;19.00;19.00;;;;;22.23;58.10;100645.44;5097533;27;45294;-54
2022/10/20 05:35:20;;;;;;;;;20.25;18.75;;;;;22.19;58.38;100639.53;5098838;28;44871;-53
2022/10/20 05:37:46;;;;;;;;;19.25;17.00;;;;;22.23;58.40;100645.44;5102769;28;46214;-53
2022/10/20 05:40:11;;;;;;;;;20.25;17.75;;;;;22.22;58.42;100641.94;5095750;27;46339;-54
2022/10/20 05:42:37;;;;;;;;;17.75;15.00;;;;;22.20;58.50;100638.59;5096100;27;44798;-53
2022/10/20 05:45:03;;;;;;;;;17.00;14.25;;;;;22.23;58.63;100637.53;5081726;28;45312;-53
2022/10/20 05:47:28;;;;;;;;;18.50;16.00;;;;;22.22;58.40;100628.75;5093562;27;46093;-51
2022/10/20 05:49:54;;;;;;;;;16.25;15.00;;;;;22.20;58.35;100628.03;5099008;28;57055;-53
2022/10/20 05:52:19;;;;;;;;;13.25;12.25;;;;;22.20;58.40;100619.25;5088090;28;45280;-54
2022/10/20 05:54:44;;;;;;;;;13.25;13.25;;;;;22.19;58.49;100617.56;5081184;27;45227;-54
2022/10/20 05:57:10;;;;;;;;;14.75;14.50;;;;;22.19;58.57;100615.78;5078196;27;45395;-54
2022/10/20 05:59:35;;;;;;;;;11.75;11.50;;;;;22.15;58.79;100619.56;5077435;28;45361;-53
2022/10/20 06:02:00;;;;;;;;;14.50;11.00;;;;;22.17;58.48;100608.88;5076509;27;60864;-54
2022/10/20 06:04:27;;;;;;;;;9.75;9.50;;;;;22.17;58.41;100603.59;5078109;27;45610;-53
2022/10/20 06:06:53;;;;;;;;;10.00;9.75;;;;;22.13;58.51;100592.41;5088418;28;46714;-54
2022/10/20 06:09:19;;;;;;;;;17.25;17.00;;;;;22.12;58.51;100574.88;5099192;27;45108;-54
2022/10/20 06:11:45;;;;;;;;;20.50;19.25;;;;;22.09;58.54;100548.72;5087097;27;45313;-55
2022/10/20 06:14:11;;;;;;;;;16.50;15.75;;;;;22.11;58.31;100538.03;5077917;27;45387;-54
2022/10/20 06:16:37;;;;;;;;;18.00;17.75;;;;;22.09;58.32;100524.94;5081340;28;46039;-57
2022/10/20 06:19:02;;;;;;;;;19.50;18.00;;;;;22.09;58.34;100512.59;5092493;27;45332;-58
2022/10/20 06:21:30;;;;;;;;;22.25;17.25;;;;;22.09;58.38;100511.75;5104555;27;44953;-56
2022/10/20 06:24:00;;;;;;;;;20.00;17.75;;;;;22.07;58.27;100505.72;5100111;27;45274;-58
2022/10/20 06:26:35;;;;;;;;;19.00;16.00;;;;;22.10;58.25;100492.34;5077499;27;46240;-56
2022/10/20 06:29:01;;;;;;;;;13.75;13.75;;;;;22.11;58.42;100488.72;5076226;27;45322;-58
2022/10/20 06:31:32;;;;;;;;;17.50;15.25;;;;;22.13;57.93;100480.72;5076351;27;45297;-56
2022/10/20 06:33:58;;;;;;;;;16.25;14.25;;;;;22.11;58.25;100488.72;5076310;27;45322;-57
2022/10/20 06:36:24;;;;;;;;;16.25;13.75;;;;;22.14;58.41;100488.53;5075883;27;46230;-57
2022/10/20 06:38:55;;;;;;;;;14.50;13.75;;;;;22.13;58.43;100483.38;5076640;28;45796;-54
2022/10/20 06:41:21;;;;;;;;;13.50;12.00;;;;;22.17;57.84;100487.47;5080521;28;45359;-57
2022/10/20 06:43:46;;;;;;;;;14.25;13.00;;;;;22.16;57.94;100481.34;5079984;27;45357;-56
2022/10/20 06:46:15;;;;;;;;;16.00;14.25;;;;;22.16;57.89;100491.06;5076981;28;46114;-57
2022/10/20 06:48:41;;;;;;;;;11.50;10.25;;;;;22.16;57.83;100505.09;5075912;27;45978;-57
2022/10/20 06:51:09;;;;;;;;;13.25;10.25;;;;;22.10;57.97;100508.19;5076125;27;45254;-57
2022/10/20 06:53:35;;;;;;;;;11.25;9.25;;;;;22.15;57.59;100531.63;5087680;27;45311;-56
2022/10/20 06:56:12;;;;;;;;;12.75;11.00;;;;;22.14;57.67;100540.47;5085254;27;46113;-57
2022/10/20 06:58:40;;;;;;;;;14.50;11.50;;;;;22.15;57.49;100547.44;5079820;28;45348;-57
2022/10/20 07:01:13;;;;;;;;;10.25;10.25;;;;;22.15;57.74;100568.56;5085574;27;45313;-57
2022/10/20 07:03:38;;;;;;;;;12.00;11.00;;;;;22.15;57.75;100577.31;5077755;27;45393;-58
2022/10/20 07:06:06;;;;;;;;;9.75;9.75;;;;;22.15;57.44;100579.97;5074363;28;47019;-61
2022/10/20 07:08:33;;;;;;;;;12.25;9.50;;;;;22.12;57.64;100585.44;5076014;27;45617;-56
2022/10/20 07:11:00;;;;;;;;;9.00;9.00;;;;;22.16;57.70;100608.06;5078440;27;45227;-58
2022/10/20 07:13:27;;;;;;;;;11.00;8.25;;;;;22.15;57.37;100608.16;5080434;27;45492;-57
2022/10/20 07:15:53;;;;;;;;;12.00;10.50;;;;;22.15;57.67;100606.34;5060984;28;46378;-57
2022/10/20 07:18:19;;;;;;;;;10.00;9.00;;;;;22.15;57.51;100610.81;5054875;28;46025;-56
2022/10/20 07:20:44;;;;;;;;;11.00;8.00;;;;;22.15;57.62;100611.63;5055379;28;45702;-57
2022/10/20 07:23:13;;;;;;;;;8.25;8.00;;;;;22.14;57.67;100612.56;5054353;28;52578;-56
2022/10/20 07:25:38;;;;;;;;;8.00;8.00;;;;;22.15;57.85;100616.91;5055438;28;46194;-57
2022/10/20 07:28:03;;;;;;;;;8.25;8.00;;;;;22.14;57.74;100615.22;5054777;28;45340;-55
2022/10/20 07:30:29;;;;;;;;;10.00;9.00;;;;;22.16;57.37;100623.88;5055514;28;45324;-56
2022/10/20 07:32:54;;;;;;;;;9.00;8.00;;;;;22.13;57.42;100620.59;5054831;28;45241;-55
2022/10/20 07:35:19;;;;;;;;;7.50;7.00;;;;;22.12;57.67;100617.09;5056047;28;46743;-55
2022/10/20 07:37:45;;;;;;;;;9.25;9.00;;;;;22.12;57.33;100613.63;5058745;28;45354;-55
2022/10/20 07:40:10;;;;;;;;;10.50;7.50;;;;;22.16;57.27;100623.88;5064197;28;45370;-55
2022/10/20 07:42:36;;;;;;;;;8.00;7.25;;;;;22.17;57.45;100624.72;5073150;28;45616;-55
2022/10/20 07:45:01;;;;;;;;;5.50;5.50;;;;;22.17;57.34;100617.66;5063772;28;56221;-55
2022/10/20 07:47:26;;;;;;;;;8.75;8.00;;;;;22.17;57.10;100615.03;5069946;28;44770;-57
2022/10/20 07:49:52;;;;;;;;;8.25;6.00;;;;;22.19;57.11;100614.91;5077389;28;45393;-54
2022/10/20 07:52:17;;;;;;;;;8.00;7.00;;;;;22.19;57.09;100621.06;5076735;28;45322;-54
2022/10/20 07:54:43;;;;;;;;;9.50;5.50;;;;;22.17;57.04;100609.75;5079404;28;45448;-56
2022/10/20 07:57:09;;;;;;;;;5.75;5.00;;;;;22.20;57.52;100620.09;5070555;28;45618;-53
2022/10/20 07:59:34;;;;;;;;;7.00;6.25;;;;;22.19;57.45;100621.06;5059899;28;45333;-55
2022/10/20 08:01:59;;;;;;;;;11.50;7.00;;;;;22.17;57.21;100620.31;5058792;28;45705;-56
2022/10/20 08:04:25;;;;;;;;;7.50;6.50;;;;;22.17;57.14;100608.88;5058997;28;47270;-55
2022/10/20 08:06:50;;;;;;;;;9.00;6.00;;;;;22.16;57.37;100613.34;5058559;28;45398;-57
2022/10/20 08:09:15;;;;;;;;;6.50;6.50;;;;;22.15;57.17;100611.63;5058891;28;45398;-56
2022/10/20 08:11:41;;;;;;;;;6.00;5.00;;;;;22.08;57.11;100605.06;5059157;28;45547;-57
2022/10/20 08:14:06;;;;;;;;;10.50;6.00;;;;;22.09;57.19;100604.13;5064669;28;46970;-55
2022/10/20 08:16:32;;;;;;;;;6.50;6.25;;;;;22.11;57.20;100610.13;5076763;28;45194;-55
2022/10/20 08:18:57;;;;;;;;;6.00;5.25;;;;;22.10;57.29;100605.81;5068192;28;45318;-56
2022/10/20 08:21:23;;;;;;;;;7.75;7.50;;;;;22.10;57.21;100590.00;5063025;28;45346;-55
2022/10/20 08:23:49;;;;;;;;;6.00;5.00;;;;;22.07;57.31;100598.09;5064754;28;47035;-54
2022/10/20 08:26:22;;;;;;;;;5.00;5.00;;;;;22.11;57.23;100602.22;5063457;28;45926;-54
2022/10/20 08:28:50;;;;;;;;;5.00;5.00;;;;;22.12;57.12;100603.91;5079477;28;45351;-55
2022/10/20 08:31:15;;;;;;;;;8.00;6.00;;;;;22.09;57.16;100612.06;5078939;28;45314;-56
2022/10/20 08:33:41;;;;;;;;;5.25;5.00;;;;;22.08;57.16;100611.19;5058210;28;49922;-57
2022/10/20 08:36:10;;;;;;;;;6.00;5.25;;;;;22.13;57.07;100624.06;5057973;28;49704;-54
2022/10/20 08:38:36;;;;;;;;;6.00;5.00;;;;;22.12;57.28;100614.47;5057384;28;45787;-53
2022/10/20 08:41:05;;;;;;;;;9.75;7.00;;;;;22.11;57.24;100623.31;5057925;28;45573;-54
2022/10/20 08:43:32;;;;;;;;;7.25;6.00;;;;;22.12;57.11;100618.91;5057984;28;46153;-54
2022/10/20 08:45:58;;;;;;;;;3.75;3.50;;;;;22.11;56.87;100615.41;5058762;28;45787;-56
2022/10/20 08:48:28;;;;;;;;;5.25;5.25;;;;;22.10;57.11;100624.31;5057944;28;45476;-55
2022/10/20 08:50:54;;;;;;;;;5.50;5.50;;;;;22.09;56.99;100626.06;5059010;28;45472;-53
2022/10/20 08:53:23;;;;;;;;;6.25;5.00;;;;;22.08;56.89;100634.94;5058025;28;46300;-57
2022/10/20 08:55:49;;;;;;;;;6.00;5.00;;;;;22.07;56.99;100625.31;5063995;28;45599;-54
2022/10/20 08:58:19;;;;;;;;;4.00;4.00;;;;;22.06;57.04;100625.44;5070308;28;45815;-54
2022/10/20 09:00:45;;;;;;;;;5.75;4.50;;;;;22.06;57.03;100614.88;5063871;28;45311;-55
2022/10/20 09:03:19;;;;;;;;;4.00;4.00;;;;;22.05;57.13;100615.81;5064773;28;46397;-55
2022/10/20 09:05:48;;;;;;;;;5.50;4.00;;;;;22.05;56.74;100631.66;5063758;28;45737;-56
2022/10/20 09:08:13;;;;;;;;;5.00;5.00;;;;;22.02;56.97;100624.78;5061199;28;45345;-55
2022/10/20 09:10:45;;;;;;;;;7.75;5.00;;;;;22.04;57.04;100632.59;5063494;28;45636;-55
2022/10/20 09:13:30;;;;;;;;;4.75;3.75;;;;;22.03;57.02;100628.25;5077516;28;45329;-59
2022/10/20 09:16:11;;;;;;;;;6.50;4.25;;;;;22.05;56.92;100621.09;5074790;28;45442;-55
2022/10/20 09:18:37;;;;;;;;;4.00;3.00;;;;;22.06;56.73;100634.19;5062098;28;45294;-56
2022/10/20 09:21:06;;;;;;;;;5.00;5.00;;;;;22.05;56.94;100619.28;5066056;28;45320;-55
2022/10/20 09:23:43;;;;;;;;;5.00;5.00;;;;;22.02;56.75;100619.53;5075470;28;46238;-55
2022/10/20 09:26:19;;;;;;;;;2.75;2.25;;;;;22.03;56.66;100610.66;5070677;28;45260;-55
2022/10/20 09:28:50;;;;;;;;;6.00;4.00;;;;;22.03;56.75;100615.94;5075663;28;45373;-55
2022/10/20 09:31:51;;;;;;;;;6.00;4.00;;;;;22.03;56.74;100613.28;5071700;28;45201;-55
2022/10/20 09:34:31;;;;;;;;;3.50;3.50;;;;;22.03;56.65;100613.28;5066811;28;45738;-55
2022/10/20 09:37:05;;;;;;;;;5.75;4.75;;;;;22.04;56.59;100609.72;5069263;28;45483;-55
2022/10/20 09:39:46;;;;;;;;;4.50;4.50;;;;;22.05;56.64;100613.19;5066061;28;44685;-55
2022/10/20 09:42:14;;;;;;;;;5.00;3.00;;;;;22.06;56.63;100601.69;5061862;28;45342;-53
2022/10/20 09:45:11;;;;;;;;;4.00;3.00;;;;;22.07;56.39;100611.28;5064091;28;46254;-54
2022/10/20 09:47:43;;;;;;;;;3.00;3.00;;;;;22.07;56.25;100612.13;5060255;28;45751;-53
2022/10/20 09:50:26;;;;;;;;;5.00;3.00;;;;;22.06;56.40;100617.53;5072328;28;45328;-55
2022/10/20 09:52:52;;;;;;;;;6.00;4.25;;;;;22.06;56.38;100601.69;5084695;28;45140;-54
2022/10/20 09:55:27;;;;;;;;;2.75;2.75;;;;;22.08;56.70;100620.91;5083947;28;45050;-53
2022/10/20 09:57:54;;;;;;;;;3.75;3.75;;;;;22.05;56.37;100607.91;5067139;28;45745;-53
2022/10/20 10:00:29;;;;;;;;;4.00;4.00;;;;;22.08;56.22;100610.34;5059721;28;45449;-60
2022/10/20 10:03:19;;;;;;;;;4.25;4.25;;;;;22.09;56.54;100617.31;5063554;28;45413;-55
2022/10/20 10:05:55;;;;;;;;;4.00;4.00;;;;;22.08;56.39;100605.91;5057222;28;46399;-57
2022/10/20 10:08:25;;;;;;;;;3.25;3.25;;;;;22.07;56.35;100598.94;5055979;28;45452;-55
2022/10/20 10:11:21;;;;;;;;;4.00;4.00;;;;;22.08;56.35;100605.06;5061413;28;45199;-54
2022/10/20 10:13:49;;;;;;;;;4.00;3.00;;;;;22.09;56.25;100599.69;5043164;28;45582;-53
2022/10/20 10:16:18;;;;;;;;;3.50;3.00;;;;;22.08;56.25;100594.53;5055733;28;45748;-54
2022/10/20 10:18:53;;;;;;;;;4.50;3.00;;;;;22.12;56.20;100611.81;5056312;28;45180;-55
2022/10/20 10:21:19;;;;;;;;;4.50;3.75;;;;;22.12;55.90;100605.72;5056284;28;45386;-56
2022/10/20 10:24:02;;;;;;;;;3.00;3.00;;;;;22.07;56.04;100596.28;5056507;28;45290;-55
2022/10/20 10:26:38;;;;;;;;;3.00;3.00;;;;;22.11;56.07;100610.13;5056413;28;46370;-56
2022/10/20 10:29:04;;;;;;;;;3.00;3.00;;;;;22.11;55.84;100588.19;5056179;28;45450;-54
2022/10/20 10:31:31;;;;;;;;;3.75;3.75;;;;;22.07;55.90;100591.00;5056738;28;45223;-55
2022/10/20 10:34:23;;;;;;;;;5.50;3.25;;;;;22.05;55.85;100587.63;5073234;28;46064;-54
2022/10/20 10:36:49;;;;;;;;;4.50;3.00;;;;;22.09;55.94;100583.84;5059723;28;46218;-56
2022/10/20 10:39:15;;;;;;;;;3.00;3.00;;;;;22.09;55.81;100585.66;5074208;28;45284;-53
2022/10/20 10:41:59;;;;;;;;;3.00;3.00;;;;;22.10;55.87;100579.44;5068149;28;45223;-55
2022/10/20 10:45:05;;;;;;;;;4.00;4.00;;;;;22.05;55.72;100573.59;5081062;28;44875;-57
2022/10/20 10:47:54;;;;;;;;;4.50;2.75;;;;;22.09;55.96;100583.84;5027454;28;45747;-54
2022/10/20 10:50:25;;;;;;;;;2.00;2.00;;;;;22.11;55.89;100582.91;5057338;28;45395;-55
2022/10/20 10:52:58;;;;;;;;;4.50;2.00;;;;;22.09;55.73;100565.38;5056346;28;45232;-54
2022/10/20 10:55:43;;;;;;;;;5.25;3.00;;;;;22.08;55.76;100557.56;5056013;28;45230;-54
2022/10/20 10:58:57;;;;;;;;;5.00;2.25;;;;;22.13;55.54;100559.91;5055445;28;45358;-53
2022/10/20 11:01:51;;;;;;;;;2.00;2.00;;;;;22.08;55.51;100547.84;5028197;28;45386;-53
2022/10/20 11:04:38;;;;;;;;;2.00;2.00;;;;;22.15;55.63;100561.47;5055591;28;45443;-55
2022/10/20 11:07:12;;;;;;;;;4.00;3.00;;;;;22.16;55.25;100559.72;5058235;28;45239;-55
2022/10/20 11:09:43;;;;;;;;;2.25;2.25;;;;;22.05;55.45;100536.66;5062530;28;46406;-58
2022/10/20 11:12:11;;;;;;;;;3.75;3.00;;;;;22.20;55.71;100545.34;5059900;28;45984;-55
2022/10/20 11:14:53;;;;;;;;;2.00;2.00;;;;;22.21;55.57;100542.59;5059251;28;45713;-56
2022/10/20 11:17:31;;;;;;;;;3.00;3.00;;;;;22.12;55.51;100535.28;5059094;28;45809;-53
2022/10/20 11:20:15;;;;;;;;;2.00;2.00;;;;;22.26;55.38;100538.78;5059551;28;45728;-55
2022/10/20 11:22:53;;;;;;;;;4.00;3.00;;;;;22.27;54.92;100528.13;5061170;28;45738;-56
2022/10/20 11:25:31;;;;;;;;;2.00;2.00;;;;;22.29;55.24;100538.59;5078223;28;45465;-56
2022/10/20 11:27:58;;;;;;;;;6.75;3.00;;;;;22.29;55.08;100530.69;5086196;28;45691;-57
2022/10/20 11:30:26;;;;;;;;;3.00;3.00;;;;;22.29;55.23;100528.03;5061886;28;46092;-55